createdAt,value
2019-06-08T00:00:47.571Z,21.55
2019-06-08T00:03:04.542Z,20.32
2019-06-08T00:05:21.292Z,21.07
2019-06-08T00:07:38.253Z,21.06
2019-06-08T00:09:55.250Z,21.43
2019-06-08T00:12:12.963Z,21.12
2019-06-08T00:14:30.283Z,21.30
2019-06-08T00:16:47.491Z,21.45
2019-06-08T00:19:04.484Z,21.46
2019-06-08T00:21:21.778Z,20.93
2019-06-08T00:23:38.576Z,21.13
2019-06-08T00:25:55.499Z,20.80
2019-06-08T00:28:12.454Z,20.80
2019-06-08T00:30:30.651Z,21.02
2019-06-08T00:32:47.440Z,21.04
2019-06-08T00:35:04.429Z,21.04
2019-06-08T00:37:21.440Z,19.54
2019-06-08T00:39:38.412Z,20.24
2019-06-08T00:41:55.481Z,20.03
2019-06-08T00:44:12.872Z,19.39
2019-06-08T00:46:30.593Z,20.73
2019-06-08T00:48:47.465Z,20.73
2019-06-08T00:51:04.276Z,20.49
2019-06-08T00:53:21.331Z,21.01
2019-06-08T00:55:38.250Z,21.18
2019-06-08T00:57:55.275Z,21.42
2019-06-08T01:00:12.509Z,20.98
2019-06-08T01:02:29.368Z,20.43
2019-06-08T01:04:46.392Z,19.68
2019-06-08T01:07:03.462Z,19.80
2019-06-08T01:09:20.467Z,19.81
2019-06-08T01:11:37.928Z,20.75
2019-06-08T01:13:56.219Z,20.37
2019-06-08T01:16:13.221Z,19.93
2019-06-08T01:18:30.107Z,20.36
2019-06-08T01:20:46.939Z,20.59
2019-06-08T01:23:03.657Z,20.82
2019-06-08T01:25:21.943Z,20.43
2019-06-08T01:27:39.445Z,19.78
2019-06-08T01:29:56.794Z,19.20
2019-06-08T01:32:13.576Z,19.19
2019-06-08T01:34:30.937Z,19.19
2019-06-08T01:36:47.846Z,19.39
2019-06-08T01:39:05.749Z,20.03
2019-06-08T01:41:23.244Z,19.13
2019-06-08T01:43:40.501Z,19.13
2019-06-08T01:45:57.368Z,19.32
2019-06-08T01:48:20.128Z,19.93
2019-06-08T01:50:33.425Z,19.78
2019-06-08T01:52:50.427Z,20.11
2019-06-08T01:55:07.304Z,19.94
2019-06-08T01:57:25.232Z,19.96
2019-06-08T01:59:42.328Z,19.58
2019-06-08T02:02:01.260Z,19.23
2019-06-08T02:04:18.242Z,20.08
2019-06-08T02:06:34.926Z,20.15
2019-06-08T02:08:51.907Z,19.79
2019-06-08T02:11:08.841Z,20.15
2019-06-08T02:13:26.815Z,20.28
2019-06-08T02:15:43.672Z,18.96
2019-06-08T02:18:00.314Z,20.20
2019-06-08T02:20:17.432Z,20.30
2019-06-08T02:22:35.109Z,20.37
2019-06-08T02:24:52.267Z,19.60
2019-06-08T02:27:09.277Z,20.01
2019-06-08T02:29:27.442Z,20.34
2019-06-08T02:31:48.070Z,20.07
2019-06-08T02:34:03.237Z,19.96
2019-06-08T02:36:20.009Z,20.04
2019-06-08T02:38:36.668Z,19.31
2019-06-08T02:40:53.363Z,20.51
2019-06-08T02:43:10.398Z,20.67
2019-06-08T02:45:29.472Z,20.87
2019-06-08T02:48:04.461Z,20.41
2019-06-08T02:50:40.432Z,20.08
2019-06-08T02:52:57.305Z,19.72
2019-06-08T02:55:14.259Z,20.15
2019-06-08T02:57:33.088Z,19.84
2019-06-08T02:59:49.968Z,19.80
2019-06-08T03:02:07.518Z,20.14
2019-06-08T03:04:25.240Z,19.95
2019-06-08T03:06:42.261Z,19.98
2019-06-08T03:08:59.240Z,20.19
2019-06-08T03:11:16.219Z,20.31
2019-06-08T03:13:33.926Z,20.11
2019-06-08T03:15:51.768Z,20.59
2019-06-08T03:18:08.575Z,18.85
2019-06-08T03:20:25.481Z,18.85
2019-06-08T03:22:44.049Z,19.64
2019-06-08T03:25:02.345Z,19.00
2019-06-08T03:27:19.258Z,19.34
2019-06-08T03:29:37.203Z,19.86
2019-06-08T03:31:56.830Z,19.90
2019-06-08T03:34:13.917Z,18.76
2019-06-08T03:36:30.956Z,20.05
2019-06-08T03:38:47.816Z,19.65
2019-06-08T03:41:04.791Z,19.52
2019-06-08T03:43:21.883Z,20.02
2019-06-08T03:45:40.647Z,20.02
2019-06-08T03:47:57.257Z,20.03
2019-06-08T03:50:14.273Z,19.76
2019-06-08T03:52:31.066Z,19.75
2019-06-08T03:54:48.051Z,19.14
2019-06-08T03:57:05.642Z,19.68
2019-06-08T03:59:22.593Z,19.91
2019-06-08T04:01:39.843Z,19.91
2019-06-08T04:04:00.088Z,20.45
2019-06-08T04:06:15.809Z,19.95
2019-06-08T04:08:32.491Z,20.49
2019-06-08T04:10:50.405Z,20.25
2019-06-08T04:13:11.181Z,20.07
2019-06-08T04:15:26.337Z,19.86
2019-06-08T04:17:44.151Z,20.32
2019-06-08T04:20:10.416Z,20.17
2019-06-08T04:22:20.523Z,20.00
2019-06-08T04:24:38.084Z,20.84
2019-06-08T04:26:55.474Z,20.51
2019-06-08T04:29:12.396Z,20.17
2019-06-08T04:31:29.597Z,20.06
2019-06-08T04:33:46.783Z,19.41
2019-06-08T04:36:03.963Z,20.37
2019-06-08T04:38:21.245Z,19.13
2019-06-08T04:40:39.575Z,20.10
2019-06-08T04:42:57.336Z,20.98
2019-06-08T04:45:14.418Z,20.11
2019-06-08T04:47:31.481Z,19.88
2019-06-08T04:49:48.922Z,20.50
2019-06-08T04:52:06.428Z,20.40
2019-06-08T04:54:24.630Z,19.46
2019-06-08T04:56:42.773Z,20.53
2019-06-08T04:58:59.891Z,20.70
2019-06-08T05:01:16.487Z,20.54
2019-06-08T05:03:34.836Z,19.78
2019-06-08T05:05:51.534Z,20.06
2019-06-08T05:08:08.516Z,20.59
2019-06-08T05:10:25.590Z,20.76
2019-06-08T05:12:45.622Z,20.73
2019-06-08T05:15:03.327Z,19.96
2019-06-08T05:17:21.372Z,20.20
2019-06-08T05:19:39.242Z,20.43
2019-06-08T05:21:57.833Z,20.15
2019-06-08T05:24:14.867Z,20.15
2019-06-08T05:26:31.570Z,19.96
2019-06-08T05:28:49.559Z,19.84
2019-06-08T05:31:06.581Z,19.84
2019-06-08T05:33:24.035Z,19.84
2019-06-08T05:35:41.407Z,19.54
2019-06-08T05:37:58.488Z,20.16
2019-06-08T05:40:15.493Z,21.06
2019-06-08T05:42:32.485Z,20.34
2019-06-08T05:44:50.262Z,21.52
2019-06-08T05:47:07.529Z,21.25
2019-06-08T05:49:24.512Z,20.53
2019-06-08T05:51:41.802Z,20.79
2019-06-08T05:53:59.241Z,20.76
2019-06-08T05:56:16.337Z,20.93
2019-06-08T05:58:33.542Z,20.99
2019-06-08T06:00:51.581Z,20.76
2019-06-08T06:03:08.496Z,20.76
2019-06-08T06:05:25.423Z,20.51
2019-06-08T06:07:42.686Z,20.56
2019-06-08T06:09:59.789Z,20.54
2019-06-08T06:12:16.762Z,20.78
2019-06-08T06:14:36.892Z,20.33
2019-06-08T06:16:53.450Z,20.33
2019-06-08T06:19:10.679Z,19.65
2019-06-08T06:21:28.971Z,21.07
2019-06-08T06:23:47.219Z,21.07
2019-06-08T06:26:04.588Z,20.62
2019-06-08T06:28:21.526Z,21.10
2019-06-08T06:30:38.656Z,21.31
2019-06-08T06:32:56.000Z,20.57
2019-06-08T06:35:14.275Z,21.28
2019-06-08T06:37:31.248Z,21.60
2019-06-08T06:39:49.957Z,22.13
2019-06-08T06:42:07.363Z,20.68
2019-06-08T06:44:24.387Z,21.62
2019-06-08T06:46:41.891Z,20.45
2019-06-08T06:48:58.673Z,21.69
2019-06-08T06:51:25.607Z,21.55
2019-06-08T06:53:33.682Z,20.86
2019-06-08T06:55:51.485Z,22.25
2019-06-08T06:58:08.340Z,22.25
2019-06-08T07:00:32.754Z,22.25
2019-06-08T07:02:50.049Z,22.70
2019-06-08T07:05:07.357Z,22.70
2019-06-08T07:07:24.490Z,23.39
2019-06-08T07:09:41.820Z,24.24
2019-06-08T07:11:58.565Z,24.27
2019-06-08T07:14:15.461Z,21.79
2019-06-08T07:16:32.524Z,23.10
2019-06-08T07:18:50.244Z,23.04
2019-06-08T07:21:07.490Z,23.94
2019-06-08T07:23:24.475Z,24.68
2019-06-08T07:25:41.644Z,21.91
2019-06-08T07:27:59.387Z,23.65
2019-06-08T07:30:17.016Z,25.01
2019-06-08T07:32:33.723Z,25.03
2019-06-08T07:34:51.540Z,25.02
2019-06-08T07:37:08.439Z,25.44
2019-06-08T07:39:26.223Z,25.44
2019-06-08T07:41:43.296Z,26.13
2019-06-08T07:44:00.466Z,25.77
2019-06-08T07:46:17.487Z,25.19
2019-06-08T07:48:34.511Z,25.01
2019-06-08T07:50:52.230Z,24.00
2019-06-08T07:53:09.668Z,23.64
2019-06-08T07:55:26.532Z,25.15
2019-06-08T07:57:43.706Z,25.64
2019-06-08T08:00:00.507Z,25.26
2019-06-08T08:02:18.531Z,25.92
2019-06-08T08:04:38.107Z,26.83
2019-06-08T08:06:56.593Z,25.71
2019-06-08T08:09:13.670Z,27.01
2019-06-08T08:11:30.897Z,26.06
2019-06-08T08:13:50.149Z,25.32
2019-06-08T08:16:06.958Z,27.12
2019-06-08T08:18:24.055Z,25.60
2019-06-08T08:20:40.670Z,26.92
2019-06-08T08:23:04.141Z,26.21
2019-06-08T08:25:18.260Z,25.83
2019-06-08T08:27:37.614Z,27.53
2019-06-08T08:29:55.352Z,27.60
2019-06-08T08:32:12.541Z,27.88
2019-06-08T08:34:29.465Z,27.88
2019-06-08T08:36:50.532Z,26.85
2019-06-08T08:39:08.652Z,26.85
2019-06-08T08:41:27.792Z,24.90
2019-06-08T08:43:44.286Z,24.90
2019-06-08T08:46:02.009Z,26.12
2019-06-08T08:48:25.350Z,27.42
2019-06-08T08:50:38.328Z,26.91
2019-06-08T08:52:58.480Z,28.71
2019-06-08T08:55:13.861Z,28.24
2019-06-08T08:57:31.007Z,28.40
2019-06-08T08:59:50.382Z,29.48
2019-06-08T09:02:10.995Z,28.76
2019-06-08T09:04:27.768Z,27.83
2019-06-08T09:06:45.238Z,26.42
2019-06-08T09:09:03.645Z,27.52
2019-06-08T09:11:21.616Z,26.59
2019-06-08T09:13:38.449Z,26.82
2019-06-08T09:15:55.844Z,26.28
2019-06-08T09:18:13.128Z,26.70
2019-06-08T09:20:31.480Z,27.44
2019-06-08T09:22:56.824Z,27.72
2019-06-08T09:25:08.786Z,28.16
2019-06-08T09:27:28.057Z,26.96
2019-06-08T09:29:45.055Z,29.09
2019-06-08T09:32:03.473Z,27.38
2019-06-08T09:34:20.754Z,28.26
2019-06-08T09:36:40.725Z,27.61
2019-06-08T09:38:59.629Z,29.46
2019-06-08T09:41:15.535Z,28.85
2019-06-08T09:43:32.772Z,29.22
2019-06-08T09:45:55.369Z,30.61
2019-06-08T09:48:13.127Z,30.71
2019-06-08T09:50:31.554Z,29.75
2019-06-08T09:53:06.054Z,27.85
2019-06-08T09:55:09.715Z,29.99
2019-06-08T09:57:28.581Z,29.63
2019-06-08T09:59:48.080Z,28.86
2019-06-08T10:02:09.394Z,28.63
2019-06-08T10:04:25.606Z,28.73
2019-06-08T10:06:43.833Z,29.53
2019-06-08T10:09:02.794Z,29.16
2019-06-08T10:11:23.861Z,29.02
2019-06-08T10:13:43.395Z,27.09
2019-06-08T10:16:03.091Z,29.01
2019-06-08T10:18:18.574Z,30.13
2019-06-08T10:20:38.245Z,30.32
2019-06-08T10:22:54.807Z,28.18
2019-06-08T10:25:12.941Z,29.84
2019-06-08T10:27:29.659Z,31.66
2019-06-08T10:29:48.375Z,29.49
2019-06-08T10:32:08.892Z,32.03
2019-06-08T10:34:27.311Z,29.49
2019-06-08T10:36:45.936Z,29.24
2019-06-08T10:39:07.249Z,30.45
2019-06-08T10:41:23.832Z,29.36
2019-06-08T10:43:42.591Z,30.53
2019-06-08T10:46:05.325Z,30.73
2019-06-08T10:48:19.507Z,28.82
2019-06-08T10:50:37.076Z,28.07
2019-06-08T10:52:54.110Z,30.91
2019-06-08T10:55:12.227Z,31.15
2019-06-08T10:57:30.492Z,29.95
2019-06-08T10:59:48.760Z,30.88
2019-06-08T11:02:11.314Z,31.86
2019-06-08T11:04:28.507Z,30.38
2019-06-08T11:06:47.695Z,30.38
2019-06-08T11:09:07.447Z,33.33
2019-06-08T11:11:23.249Z,33.33
2019-06-08T11:13:41.252Z,34.22
2019-06-08T11:16:00.281Z,31.59
2019-06-08T11:18:18.639Z,29.35
2019-06-08T11:20:38.150Z,29.26
2019-06-08T11:22:57.845Z,31.14
2019-06-08T11:25:16.348Z,28.98
2019-06-08T11:27:33.571Z,28.98
2019-06-08T11:29:50.815Z,29.41
2019-06-08T11:32:10.923Z,29.84
2019-06-08T11:34:28.717Z,29.86
2019-06-08T11:36:48.395Z,29.19
2019-06-08T11:39:06.763Z,30.14
2019-06-08T11:41:24.306Z,30.14
2019-06-08T11:43:41.288Z,31.16
2019-06-08T11:46:02.487Z,31.24
2019-06-08T11:48:19.988Z,28.93
2019-06-08T11:50:41.978Z,28.93
2019-06-08T11:53:00.640Z,27.56
2019-06-08T11:55:18.214Z,27.56
2019-06-08T11:57:37.409Z,27.06
2019-06-08T11:59:54.511Z,25.74
2019-06-08T12:02:14.148Z,26.31
2019-06-08T12:04:31.345Z,27.04
2019-06-08T12:06:48.517Z,26.29
2019-06-08T12:09:09.195Z,26.47
2019-06-08T12:11:28.018Z,26.30
2019-06-08T12:13:46.906Z,27.16
2019-06-08T12:16:03.467Z,27.16
2019-06-08T12:18:21.553Z,26.36
2019-06-08T12:20:38.682Z,27.05
2019-06-08T12:22:56.095Z,28.56
2019-06-08T12:25:14.832Z,27.46
2019-06-08T12:27:36.390Z,28.29
2019-06-08T12:29:52.974Z,27.78
2019-06-08T12:32:12.755Z,26.27
2019-06-08T12:34:33.063Z,27.18
2019-06-08T12:36:49.945Z,26.64
2019-06-08T12:39:08.289Z,28.48
2019-06-08T12:41:25.472Z,27.94
2019-06-08T12:43:42.624Z,27.23
2019-06-08T12:46:01.139Z,26.35
2019-06-08T12:48:23.392Z,28.43
2019-06-08T12:50:38.658Z,27.69
2019-06-08T12:52:58.390Z,28.17
2019-06-08T12:55:20.180Z,29.69
2019-06-08T12:57:34.444Z,27.77
2019-06-08T12:59:52.618Z,28.63
2019-06-08T13:02:12.883Z,29.01
2019-06-08T13:04:29.426Z,27.96
2019-06-08T13:06:48.615Z,27.99
2019-06-08T13:09:10.073Z,28.87
2019-06-08T13:11:28.248Z,27.35
2019-06-08T13:13:45.356Z,27.62
2019-06-08T13:16:02.348Z,26.66
2019-06-08T13:18:20.168Z,26.89
2019-06-08T13:20:38.923Z,25.93
2019-06-08T13:22:57.599Z,27.04
2019-06-08T13:25:28.847Z,26.03
2019-06-08T13:27:34.458Z,26.60
2019-06-08T13:29:51.555Z,28.17
2019-06-08T13:32:09.856Z,30.17
2019-06-08T13:34:28.419Z,29.54
2019-06-08T13:36:48.505Z,27.50
2019-06-08T13:39:09.871Z,29.77
2019-06-08T13:41:29.921Z,30.39
2019-06-08T13:43:47.813Z,30.39
2019-06-08T13:46:05.243Z,31.59
2019-06-08T13:48:23.347Z,32.01
2019-06-08T13:50:40.354Z,32.17
2019-06-08T13:53:00.452Z,30.69
2019-06-08T13:55:36.317Z,31.00
2019-06-08T13:57:38.826Z,30.09
2019-06-08T13:59:57.866Z,29.08
2019-06-08T14:02:17.817Z,28.64
2019-06-08T14:04:39.464Z,28.45
2019-06-08T14:06:54.834Z,27.84
2019-06-08T14:09:12.139Z,26.46
2019-06-08T14:11:29.112Z,28.43
2019-06-08T14:13:48.044Z,28.68
2019-06-08T14:16:05.433Z,28.10
2019-06-08T14:18:26.256Z,28.93
2019-06-08T14:20:42.794Z,29.09
2019-06-08T14:23:00.635Z,29.62
2019-06-08T14:25:20.079Z,30.29
2019-06-08T14:27:37.478Z,30.08
2019-06-08T14:29:58.308Z,30.08
2019-06-08T14:32:18.899Z,31.15
2019-06-08T14:34:35.238Z,29.15
2019-06-08T14:36:52.270Z,29.15
2019-06-08T14:39:10.972Z,29.49
2019-06-08T14:41:31.152Z,30.05
2019-06-08T14:43:50.549Z,31.12
2019-06-08T14:46:08.111Z,31.65
2019-06-08T14:48:28.163Z,31.18
2019-06-08T14:50:43.604Z,32.99
2019-06-08T14:53:00.853Z,33.25
2019-06-08T14:55:20.104Z,30.95
2019-06-08T14:57:37.505Z,31.05
2019-06-08T14:59:58.181Z,31.05
2019-06-08T15:02:14.348Z,30.92
2019-06-08T15:04:35.987Z,30.39
2019-06-08T15:06:50.254Z,29.75
2019-06-08T15:09:08.635Z,28.03
2019-06-08T15:11:30.993Z,29.09
2019-06-08T15:13:48.743Z,29.65
2019-06-08T15:16:08.139Z,29.65
2019-06-08T15:18:25.851Z,30.10
2019-06-08T15:20:43.692Z,28.97
2019-06-08T15:23:03.525Z,28.88
2019-06-08T15:25:20.575Z,28.88
2019-06-08T15:27:38.896Z,27.39
2019-06-08T15:29:58.623Z,29.14
2019-06-08T15:32:17.824Z,29.37
2019-06-08T15:34:34.680Z,28.90
2019-06-08T15:36:51.604Z,29.19
2019-06-08T15:39:08.761Z,29.11
2019-06-08T15:41:26.547Z,29.04
2019-06-08T15:43:44.251Z,29.04
2019-06-08T15:46:01.236Z,28.75
2019-06-08T15:48:20.387Z,28.35
2019-06-08T15:50:37.863Z,28.44
2019-06-08T15:52:59.820Z,28.09
2019-06-08T15:55:14.427Z,27.17
2019-06-08T15:57:36.594Z,28.32
2019-06-08T15:59:50.844Z,27.54
2019-06-08T16:02:07.658Z,26.95
2019-06-08T16:04:25.697Z,26.55
2019-06-08T16:06:42.565Z,26.86
2019-06-08T16:08:59.844Z,26.86
2019-06-08T16:11:19.040Z,26.23
2019-06-08T16:13:36.530Z,27.43
2019-06-08T16:15:54.546Z,27.73
2019-06-08T16:18:11.981Z,27.50
2019-06-08T16:20:29.618Z,27.35
2019-06-08T16:22:46.658Z,27.22
2019-06-08T16:25:04.038Z,27.79
2019-06-08T19:44:29.371Z,28.65
2019-06-08T19:46:47.547Z,28.13
2019-06-08T19:49:07.848Z,28.05
2019-06-08T19:51:27.627Z,28.36
2019-06-08T19:53:46.566Z,27.51
2019-06-08T19:56:03.522Z,27.90
2019-06-08T19:58:22.965Z,28.02
2019-06-08T20:00:41.104Z,27.70
2019-06-08T20:03:01.017Z,27.79
2019-06-08T20:05:18.440Z,27.73
2019-06-08T20:07:37.890Z,27.62
2019-06-08T20:09:57.106Z,27.41
2019-06-08T20:12:14.533Z,27.04
2019-06-08T20:14:32.023Z,27.15
2019-06-08T20:16:50.921Z,27.01
2019-06-08T20:19:10.931Z,26.95
2019-06-08T20:21:30.247Z,25.44
2019-06-08T20:23:49.767Z,26.41
2019-06-08T20:26:08.328Z,25.96
2019-06-08T20:28:28.254Z,25.96
2019-06-08T20:30:46.683Z,26.43
2019-06-08T20:33:04.020Z,26.62
2019-06-08T20:35:21.265Z,26.63
2019-06-08T20:37:38.507Z,26.37
2019-06-08T20:40:07.137Z,26.46
2019-06-08T20:42:14.083Z,26.41
2019-06-08T20:44:31.429Z,26.25
2019-06-08T20:46:49.557Z,26.30
2019-06-08T20:49:08.396Z,25.93
2019-06-08T20:51:27.717Z,25.44
2019-06-08T20:53:44.510Z,25.86
2019-06-08T20:56:01.486Z,25.36
2019-06-08T20:58:18.650Z,25.58
2019-06-08T21:00:37.761Z,25.58
2019-06-08T21:03:01.721Z,25.77
2019-06-08T21:05:14.026Z,26.07
2019-06-08T21:07:31.036Z,26.10
2019-06-08T21:09:50.746Z,25.92
2019-06-08T21:12:06.712Z,25.98
2019-06-08T21:14:27.205Z,25.85
2019-06-08T21:16:43.095Z,25.85
2019-06-08T21:18:59.837Z,25.91
2019-06-08T21:21:17.542Z,25.79
2019-06-08T21:23:34.307Z,25.63
2019-06-08T21:25:56.344Z,25.53
2019-06-08T21:28:12.630Z,25.44
2019-06-08T21:30:32.040Z,25.47
2019-06-08T21:32:52.922Z,24.90
2019-06-08T21:35:08.247Z,25.23
2019-06-08T21:37:28.100Z,24.16
2019-06-08T21:39:44.487Z,24.34
2019-06-08T21:42:03.243Z,24.85
2019-06-08T21:44:19.974Z,24.67
2019-06-08T21:46:38.075Z,24.84
2019-06-08T21:48:56.863Z,25.03
2019-06-08T21:51:14.326Z,23.93
2019-06-08T21:53:32.796Z,24.57
2019-06-08T21:55:50.719Z,24.31
2019-06-08T21:58:09.413Z,23.84
2019-06-08T22:00:39.170Z,23.89
2019-06-08T22:02:47.972Z,23.27
2019-06-08T22:05:08.816Z,22.57
2019-06-08T22:07:25.690Z,23.64
2019-06-08T22:09:44.274Z,23.95
2019-06-08T22:12:01.287Z,23.11
2019-06-08T22:14:18.261Z,23.93
2019-06-08T22:16:38.060Z,23.99
2019-06-08T22:18:54.910Z,23.78
2019-06-08T22:21:12.323Z,23.43
2019-06-08T22:23:29.423Z,23.07
2019-06-08T22:25:47.726Z,23.67
2019-06-08T22:28:07.127Z,23.70
2019-06-08T22:30:36.366Z,23.48
2019-06-08T22:32:43.477Z,23.41
2019-06-08T22:35:01.827Z,23.82
2019-06-08T22:37:19.081Z,23.97
2019-06-08T22:39:37.434Z,23.94
2019-06-08T22:41:55.476Z,23.78
2019-06-08T22:44:12.644Z,23.75
2019-06-08T22:46:29.481Z,23.53
2019-06-08T22:48:47.756Z,23.44
2019-06-08T22:51:04.690Z,23.40
2019-06-08T22:53:21.523Z,22.57
2019-06-08T22:55:38.458Z,22.57
2019-06-08T22:57:55.420Z,23.06
2019-06-08T23:00:17.579Z,22.65
2019-06-08T23:02:31.250Z,22.65
2019-06-08T23:04:48.015Z,22.85
2019-06-08T23:07:07.007Z,21.65
2019-06-08T23:09:23.399Z,23.00
2019-06-08T23:11:40.445Z,23.00
2019-06-08T23:14:00.797Z,22.85
2019-06-08T23:16:18.219Z,23.28
2019-06-08T23:18:37.363Z,22.71
2019-06-08T23:20:57.401Z,22.36
2019-06-08T23:23:14.225Z,22.33
2019-06-08T23:25:31.265Z,21.94
2019-06-08T23:27:48.497Z,22.61
2019-06-08T23:30:09.969Z,22.25
2019-06-08T23:32:27.498Z,22.26
2019-06-08T23:34:43.992Z,22.77
2019-06-08T23:37:05.583Z,22.56
2019-06-08T23:39:19.544Z,22.87
2019-06-08T23:41:37.744Z,23.14
2019-06-08T23:43:54.442Z,22.92
2019-06-08T23:46:11.250Z,22.92
2019-06-08T23:48:28.250Z,22.88
2019-06-08T23:50:47.243Z,22.97
2019-06-08T23:53:04.342Z,22.81
2019-06-08T23:55:21.378Z,22.81
2019-06-08T23:57:38.557Z,22.61
2019-06-08T23:59:55.619Z,22.21
